This is the latest recevied weather packets stored in our database for station/object KB8TTR. If no packets are shown the sender has not sent any weather packets the latest 10 day(s).
| Time | Temp. | Humidity | Pressure | Rain* | Wind** | Luminosity | Snow |
|---|---|---|---|---|---|---|---|
| 1787856720 | 27.78° C | 56% | 1016.1 hPa | 0 mm | - | 831 W/m² | - |
| 1787856415 | 27.78° C | 59% | 1016.1 hPa | 0 mm | - | 821 W/m² | - |
| 1787856110 | 27.78° C | 59% | 1016.1 hPa | 0 mm | - | 856 W/m² | - |
| 1787855805 | 27.22° C | 62% | 1016.1 hPa | 0 mm | - | 854 W/m² | - |
| 1787855500 | 26.67° C | 64% | 1016.2 hPa | 0 mm | - | 879 W/m² | - |
| 1787855196 | 26.67° C | 65% | 1016.1 hPa | 0 mm | - | 900 W/m² | - |
| 1787854891 | 26.67° C | 65% | 1016.1 hPa | 0 mm | - | 810 W/m² | - |
| 1787854591 | 26.11° C | 65% | 1016.1 hPa | 0 mm | - | 405 W/m² | - |
| 1787854285 | 26.11° C | 65% | 1016.1 hPa | 0 mm | - | 949 W/m² | - |
| 1787853981 | 26.67° C | 61% | 1016 hPa | 0 mm | - | 206 W/m² | - |
| 1787853680 | 27.22° C | 58% | 1016.2 hPa | 0 mm | - | 757 W/m² | - |
| 1787853374 | 27.78° C | 61% | 1016.1 hPa | 0 mm | - | 938 W/m² | - |
| 1787853074 | 27.22° C | 58% | 1016.2 hPa | 0 mm | - | 932 W/m² | - |
| 1787852769 | 26.67° C | 59% | 1016.1 hPa | 0 mm | - | 952 W/m² | - |
| 1787852468 | 26.11° C | 61% | 1016.2 hPa | 0 mm | - | 238 W/m² | - |
| 1787852167 | 26.67° C | 59% | 1016.3 hPa | 0 mm | - | 166 W/m² | - |
| 1787851862 | 27.22° C | 59% | 1016.4 hPa | 0 mm | - | 161 W/m² | - |
| 1787851561 | 27.22° C | 55% | 1016.2 hPa | 0 mm | - | 159 W/m² | - |
| 1787851256 | 26.67° C | 56% | 1016.3 hPa | 0 mm | - | 935 W/m² | - |
| 1787850951 | 26.11° C | 60% | 1016.3 hPa | 0 mm | - | 870 W/m² | - |
| 1787850648 | 26.67° C | 59% | 1016.2 hPa | 0 mm | - | 165 W/m² | - |
| 1787850343 | 27.78° C | 54% | 1016.2 hPa | 0 mm | - | 950 W/m² | - |
| 1787850033 | 27.78° C | 54% | 1016.1 hPa | 0 mm | - | 776 W/m² | - |
| 1787849732 | 27.78° C | 55% | 1016.3 hPa | 0 mm | - | 896 W/m² | - |
| 1787849427 | 27.22° C | 59% | 1016.2 hPa | 0 mm | - | 860 W/m² | - |
* Rain latest hour (hover to see other rain measurements)
** Current wind speed in m/s (hover to see current wind gust speed)